createdAt,value
2023-01-10T00:00:00.986Z,8.20
2023-01-10T00:02:32.411Z,8.26
2023-01-10T00:05:11.692Z,7.85
2023-01-10T00:07:56.541Z,7.76
2023-01-10T00:10:23.473Z,7.64
2023-01-10T00:13:09.748Z,7.69
2023-01-10T00:15:41.598Z,7.65
2023-01-10T00:18:12.144Z,7.64
2023-01-10T00:20:47.579Z,7.46
2023-01-10T00:23:14.699Z,7.57
2023-01-10T00:25:46.618Z,7.82
2023-01-10T00:28:17.687Z,8.25
2023-01-10T00:31:10.849Z,8.00
2023-01-10T00:33:37.976Z,7.74
2023-01-10T00:36:12.945Z,7.57
2023-01-10T00:38:42.720Z,7.60
2023-01-10T00:41:31.445Z,7.51
2023-01-10T00:44:03.747Z,7.58
2023-01-10T00:46:33.540Z,7.74
2023-01-10T00:49:02.801Z,7.54
2023-01-10T00:51:29.552Z,7.45
2023-01-10T00:53:56.489Z,7.58
2023-01-10T00:56:23.351Z,7.76
2023-01-10T00:58:53.253Z,7.81
2023-01-10T01:01:20.260Z,8.46
2023-01-10T01:03:52.352Z,9.02
2023-01-10T01:06:22.334Z,9.49
2023-01-10T01:08:51.023Z,9.60
2023-01-10T01:11:26.872Z,9.80
2023-01-10T01:13:56.353Z,9.70
2023-01-10T01:16:23.234Z,9.77
2023-01-10T01:18:55.851Z,9.67
2023-01-10T01:21:22.626Z,9.62
2023-01-10T01:23:53.422Z,9.66
2023-01-10T01:26:20.195Z,9.72
2023-01-10T01:28:50.526Z,9.91
2023-01-10T01:31:17.410Z,9.66
2023-01-10T01:33:44.311Z,9.54
2023-01-10T01:36:17.611Z,9.91
2023-01-10T01:38:49.289Z,9.60
2023-01-10T01:41:36.463Z,9.70
2023-01-10T01:44:10.434Z,9.72
2023-01-10T01:46:48.867Z,9.48
2023-01-10T01:49:21.969Z,9.55
2023-01-10T01:52:01.632Z,9.63
2023-01-10T01:54:41.147Z,9.75
2023-01-10T01:57:19.482Z,9.75
2023-01-10T01:59:50.091Z,9.32
2023-01-10T02:02:32.716Z,9.30
2023-01-10T02:05:02.533Z,9.10
2023-01-10T02:07:38.671Z,9.15
2023-01-10T02:10:18.884Z,9.48
2023-01-10T02:12:47.896Z,9.36
2023-01-10T02:15:18.818Z,9.33
2023-01-10T02:17:51.891Z,9.10
2023-01-10T02:20:23.473Z,8.99
2023-01-10T02:23:18.480Z,8.85
2023-01-10T02:26:14.684Z,8.78
2023-01-10T02:29:10.664Z,8.85
2023-01-10T02:32:17.158Z,8.72
2023-01-10T02:35:03.315Z,8.59
2023-01-10T02:37:48.371Z,8.57
2023-01-10T02:40:39.231Z,8.45
2023-01-10T02:43:13.749Z,8.50
2023-01-10T02:45:48.067Z,8.46
2023-01-10T02:48:18.812Z,8.56
2023-01-10T02:51:21.994Z,8.89
2023-01-10T02:54:04.097Z,9.05
2023-01-10T02:56:44.200Z,9.29
2023-01-10T02:59:38.715Z,9.40
2023-01-10T03:02:31.278Z,9.28
2023-01-10T03:05:05.581Z,9.25
2023-01-10T03:08:11.019Z,9.11
2023-01-10T03:10:45.587Z,9.00
2023-01-10T03:13:23.097Z,9.07
2023-01-10T03:15:51.529Z,9.07
2023-01-10T03:18:30.681Z,9.06
2023-01-10T03:20:59.632Z,9.10
2023-01-10T03:23:32.766Z,9.08
2023-01-10T03:26:06.666Z,8.99
2023-01-10T03:28:45.170Z,8.81
2023-01-10T03:31:18.900Z,8.73
2023-01-10T03:33:45.867Z,8.85
2023-01-10T03:36:33.503Z,8.87
2023-01-10T03:39:36.142Z,8.92
2023-01-10T03:42:16.350Z,8.72
2023-01-10T03:44:58.531Z,8.75
2023-01-10T03:47:41.480Z,8.91
2023-01-10T03:50:23.935Z,8.85
2023-01-10T03:52:53.314Z,8.86
2023-01-10T03:55:29.128Z,8.55
2023-01-10T03:57:58.327Z,8.59
2023-01-10T04:00:31.072Z,8.60
2023-01-10T04:03:03.396Z,8.70
2023-01-10T04:05:32.894Z,8.92
2023-01-10T04:07:59.737Z,8.86
2023-01-10T04:10:30.022Z,8.86
2023-01-10T04:13:05.059Z,8.72
2023-01-10T04:15:37.880Z,8.91
2023-01-10T04:18:04.755Z,8.96
2023-01-10T04:20:34.084Z,8.93
2023-01-10T04:23:03.791Z,8.93
2023-01-10T04:25:30.561Z,9.26
2023-01-10T04:28:02.771Z,9.06
2023-01-10T04:30:29.620Z,9.05
2023-01-10T04:32:59.465Z,9.24
2023-01-10T04:35:31.942Z,9.08
2023-01-10T04:38:05.001Z,9.01
2023-01-10T04:40:32.065Z,8.90
2023-01-10T04:42:58.928Z,8.97
2023-01-10T04:45:26.402Z,9.15
2023-01-10T04:47:56.328Z,9.15
2023-01-10T04:50:24.149Z,9.16
2023-01-10T04:52:51.112Z,9.16
2023-01-10T04:55:20.135Z,9.23
2023-01-10T04:57:51.898Z,9.41
2023-01-10T05:00:22.195Z,9.50
2023-01-10T05:02:49.185Z,9.36
2023-01-10T05:05:21.220Z,9.39
2023-01-10T05:07:48.030Z,9.35
2023-01-10T05:10:22.266Z,9.42
2023-01-10T05:12:52.131Z,9.31
2023-01-10T05:15:25.928Z,9.28
2023-01-10T05:18:03.566Z,9.20
2023-01-10T05:20:34.980Z,9.25
2023-01-10T05:23:04.884Z,9.32
2023-01-10T05:25:34.486Z,9.35
2023-01-10T05:28:01.259Z,9.51
2023-01-10T05:30:28.015Z,9.43
2023-01-10T05:32:57.275Z,9.32
2023-01-10T05:35:25.784Z,9.37
2023-01-10T05:37:52.950Z,9.35
2023-01-10T05:40:19.820Z,9.37
2023-01-10T05:42:51.615Z,9.33
2023-01-10T05:45:21.008Z,9.45
2023-01-10T05:47:47.863Z,9.25
2023-01-10T05:50:14.827Z,9.13
2023-01-10T05:52:41.967Z,9.29
2023-01-10T05:55:08.869Z,9.40
2023-01-10T05:57:35.695Z,9.29
2023-01-10T06:00:05.019Z,9.27
2023-01-10T06:02:39.305Z,9.31
2023-01-10T06:05:07.973Z,9.43
2023-01-10T06:07:40.808Z,9.28
2023-01-10T06:10:11.608Z,9.26
2023-01-10T06:12:50.430Z,9.24
2023-01-10T06:15:20.017Z,9.28
2023-01-10T06:17:48.075Z,9.38
2023-01-10T06:20:15.522Z,9.55
2023-01-10T06:22:46.644Z,9.44
2023-01-10T06:25:16.948Z,9.32
2023-01-10T06:27:49.955Z,9.44
2023-01-10T06:30:25.519Z,9.33
2023-01-10T06:32:52.431Z,9.26
2023-01-10T06:35:19.130Z,9.20
2023-01-10T06:37:46.086Z,9.13
2023-01-10T06:40:15.618Z,9.23
2023-01-10T06:42:42.458Z,9.13
2023-01-10T06:45:10.133Z,9.14
2023-01-10T06:47:39.422Z,8.94
2023-01-10T06:50:09.646Z,8.94
2023-01-10T06:52:42.442Z,8.99
2023-01-10T06:55:11.739Z,8.92
2023-01-10T06:57:38.749Z,8.89
2023-01-10T07:00:13.644Z,8.84
2023-01-10T07:02:42.920Z,8.90
2023-01-10T07:05:11.486Z,8.91
2023-01-10T07:15:49.627Z,8.74
2023-01-10T07:18:21.061Z,8.77
2023-01-10T07:20:47.786Z,8.75
2023-01-10T07:23:14.589Z,8.79
2023-01-10T07:25:49.651Z,8.76
2023-01-10T07:28:22.101Z,8.74
2023-01-10T07:30:53.289Z,8.83
2023-01-10T07:33:23.005Z,8.73
2023-01-10T07:35:49.831Z,8.63
2023-01-10T07:38:23.116Z,8.73
2023-01-10T07:40:51.253Z,8.93
2023-01-10T07:43:23.891Z,8.85
2023-01-10T07:45:54.790Z,8.82
2023-01-10T07:48:24.145Z,8.91
2023-01-10T07:50:55.467Z,9.06
2023-01-10T07:53:26.877Z,9.01
2023-01-10T07:55:53.662Z,8.99
2023-01-10T07:58:23.004Z,9.32
2023-01-10T08:00:53.049Z,9.28
2023-01-10T08:03:23.301Z,9.25
2023-01-10T08:05:53.029Z,9.29
2023-01-10T08:08:26.339Z,9.16
2023-01-10T08:10:55.871Z,9.35
2023-01-10T08:13:24.818Z,9.41
2023-01-10T08:15:52.601Z,9.44
2023-01-10T08:18:21.378Z,9.58
2023-01-10T08:20:53.045Z,9.74
2023-01-10T08:23:22.876Z,9.66
2023-01-10T08:25:59.431Z,9.71
2023-01-10T08:28:26.442Z,9.91
2023-01-10T08:31:01.147Z,9.93
2023-01-10T08:33:30.941Z,10.09
2023-01-10T08:35:57.873Z,10.04
2023-01-10T08:38:25.809Z,10.08
2023-01-10T08:40:56.995Z,10.21
2023-01-10T08:43:24.635Z,10.27
2023-01-10T08:45:56.460Z,10.28
2023-01-10T08:48:26.542Z,10.24
2023-01-10T08:50:53.561Z,10.40
2023-01-10T08:53:23.115Z,10.43
2023-01-10T08:55:52.771Z,10.46
2023-01-10T08:58:19.673Z,10.46
2023-01-10T09:00:49.607Z,10.36
2023-01-10T09:03:20.642Z,10.42
2023-01-10T09:05:51.360Z,10.41
2023-01-10T09:08:18.125Z,10.32
2023-01-10T09:10:45.050Z,10.47
2023-01-10T09:13:14.478Z,10.59
2023-01-10T09:15:45.903Z,10.63
2023-01-10T09:18:22.283Z,10.67
2023-01-10T09:20:51.064Z,10.68
2023-01-10T09:23:30.692Z,10.74
2023-01-10T09:26:01.542Z,10.67
2023-01-10T09:28:28.347Z,10.76
2023-01-10T09:31:01.600Z,10.93
2023-01-10T09:33:35.157Z,10.95
2023-01-10T09:36:27.607Z,11.13
2023-01-10T09:38:59.524Z,11.11
2023-01-10T09:41:55.848Z,11.18
2023-01-10T09:44:43.111Z,11.21
2023-01-10T09:53:39.412Z,11.39
2023-01-10T09:56:10.554Z,11.48
2023-01-10T09:58:51.090Z,11.56
2023-01-10T10:01:29.843Z,11.53
2023-01-10T10:04:02.889Z,11.62
2023-01-10T10:06:34.824Z,11.68
2023-01-10T10:09:04.193Z,11.75
2023-01-10T10:11:46.757Z,11.82
2023-01-10T10:14:32.998Z,11.85
2023-01-10T10:17:17.848Z,12.01
2023-01-10T10:20:09.060Z,12.05
2023-01-10T10:23:00.641Z,12.24
2023-01-10T10:25:45.903Z,12.29
2023-01-10T10:28:53.685Z,12.35
2023-01-10T10:31:47.771Z,12.47
2023-01-10T10:34:23.226Z,12.60
2023-01-10T10:37:06.365Z,12.62
2023-01-10T10:39:45.828Z,12.66
2023-01-10T10:42:16.870Z,12.63
2023-01-10T10:45:14.865Z,12.39
2023-01-10T10:47:52.806Z,12.30
2023-01-10T10:50:35.937Z,12.22
2023-01-10T10:53:11.363Z,12.33
2023-01-10T10:55:43.902Z,12.36
2023-01-10T10:58:12.437Z,12.38
2023-01-10T11:00:41.148Z,12.41
2023-01-10T11:03:42.196Z,12.44
2023-01-10T11:06:13.688Z,12.42
2023-01-10T11:08:45.851Z,12.47
2023-01-10T11:11:27.484Z,12.54
2023-01-10T11:14:00.010Z,12.66
2023-01-10T11:16:35.181Z,12.58
2023-01-10T11:19:20.612Z,12.64
2023-01-10T11:21:57.311Z,12.65
2023-01-10T11:24:28.828Z,12.65
2023-01-10T11:26:58.073Z,12.70
2023-01-10T11:29:53.505Z,12.72
2023-01-10T11:32:33.333Z,12.69
2023-01-10T11:35:07.501Z,12.79
2023-01-10T11:37:39.021Z,12.83
2023-01-10T11:40:28.377Z,12.88
2023-01-10T11:42:59.657Z,12.93
2023-01-10T11:45:36.418Z,12.96
2023-01-10T11:48:19.397Z,12.96
2023-01-10T11:50:56.579Z,13.03
2023-01-10T11:53:50.182Z,13.03
2023-01-10T11:56:26.203Z,13.04
2023-01-10T11:58:54.246Z,13.08
2023-01-10T12:01:43.599Z,13.13
2023-01-10T12:04:21.220Z,13.12
2023-01-10T12:06:55.942Z,13.16
2023-01-10T12:09:33.342Z,13.15
2023-01-10T12:12:08.089Z,13.24
2023-01-10T12:14:36.227Z,13.23
2023-01-10T12:17:06.711Z,13.29
2023-01-10T12:19:33.527Z,13.35
2023-01-10T12:22:06.338Z,13.37
2023-01-10T12:24:44.373Z,13.33
2023-01-10T12:27:17.516Z,13.37
2023-01-10T12:30:15.003Z,13.32
2023-01-10T12:32:46.880Z,13.50
2023-01-10T12:35:43.552Z,13.50
2023-01-10T12:42:12.553Z,13.53
2023-01-10T12:44:49.042Z,13.57
2023-01-10T12:47:49.871Z,13.52
2023-01-10T12:50:21.531Z,13.51
2023-01-10T12:53:05.620Z,13.42
2023-01-10T12:55:47.565Z,13.49
2023-01-10T12:58:22.095Z,13.46
2023-01-10T13:00:58.225Z,13.51
2023-01-10T13:03:33.306Z,13.58
2023-01-10T13:06:01.567Z,13.63
2023-01-10T13:08:34.741Z,13.58
2023-01-10T13:11:03.151Z,13.58
2023-01-10T13:13:40.854Z,13.62
2023-01-10T13:16:51.853Z,13.65
2023-01-10T13:19:28.937Z,13.63
2023-01-10T13:22:20.572Z,13.58
2023-01-10T13:24:59.943Z,13.66
2023-01-10T13:27:31.654Z,13.57
2023-01-10T13:29:58.542Z,13.68
2023-01-10T13:32:35.418Z,13.81
2023-01-10T13:35:19.124Z,13.74
2023-01-10T13:37:57.128Z,13.81
2023-01-10T13:40:34.389Z,13.80
2023-01-10T13:43:35.237Z,13.72
2023-01-10T13:46:21.704Z,13.64
2023-01-10T13:49:16.201Z,13.67
2023-01-10T13:52:32.947Z,13.63
2023-01-10T13:55:28.861Z,13.67
2023-01-10T13:57:56.853Z,13.62
2023-01-10T14:01:05.217Z,13.72
2023-01-10T14:04:01.485Z,13.69
2023-01-10T14:06:33.301Z,13.74
2023-01-10T14:09:24.742Z,13.73
2023-01-10T14:12:13.142Z,13.63
2023-01-10T14:14:41.796Z,13.63
2023-01-10T14:17:26.806Z,13.70
2023-01-10T14:20:12.119Z,13.77
2023-01-10T14:23:17.410Z,13.78
2023-01-10T14:25:53.739Z,13.67
2023-01-10T14:28:30.334Z,13.68
2023-01-10T14:31:06.394Z,13.81
2023-01-10T14:33:34.496Z,13.73
2023-01-10T14:36:09.974Z,13.62
2023-01-10T14:38:41.142Z,13.60
2023-01-10T14:41:13.275Z,13.57
2023-01-10T14:44:27.783Z,13.71
2023-01-10T14:46:57.120Z,13.57
2023-01-10T14:49:27.822Z,13.63
2023-01-10T14:52:15.481Z,13.54
2023-01-10T14:54:42.466Z,13.62
2023-01-10T14:57:21.501Z,13.51
2023-01-10T14:59:55.716Z,13.40
2023-01-10T15:02:27.471Z,13.33
2023-01-10T15:05:21.542Z,13.29
2023-01-10T15:07:51.467Z,13.42
2023-01-10T15:10:25.995Z,13.46
2023-01-10T15:12:56.942Z,13.43
2023-01-10T15:15:36.866Z,13.40
2023-01-10T15:18:13.011Z,13.55
2023-01-10T15:20:40.179Z,13.35
2023-01-10T15:23:15.834Z,13.52
2023-01-10T15:25:45.353Z,13.39
2023-01-10T15:28:17.266Z,13.40
2023-01-10T15:30:47.542Z,13.41
2023-01-10T15:33:19.851Z,13.37
2023-01-10T15:35:48.602Z,13.23
2023-01-10T15:38:18.378Z,13.26
2023-01-10T15:40:50.127Z,13.15
2023-01-10T15:43:25.007Z,13.19
2023-01-10T15:46:00.680Z,13.13
2023-01-10T15:48:43.973Z,12.95
2023-01-10T15:51:42.802Z,12.96
2023-01-10T15:54:24.521Z,12.92
2023-01-10T15:57:40.227Z,12.99
2023-01-10T16:00:18.174Z,13.00
2023-01-10T16:02:48.050Z,12.91
2023-01-10T16:05:22.512Z,12.97
2023-01-10T16:07:49.468Z,12.85
2023-01-10T16:10:26.937Z,12.83
2023-01-10T16:13:19.732Z,12.80
2023-01-10T16:15:46.595Z,12.71
2023-01-10T16:18:13.326Z,12.75
2023-01-10T16:20:46.119Z,12.72
2023-01-10T16:23:16.777Z,12.73
2023-01-10T16:26:06.137Z,12.63
2023-01-10T16:28:36.437Z,12.52
2023-01-10T16:31:12.456Z,12.65
2023-01-10T16:33:39.240Z,12.64
2023-01-10T16:36:14.907Z,12.57
2023-01-10T16:38:48.087Z,12.54
2023-01-10T16:41:36.181Z,12.53
2023-01-10T16:44:03.223Z,12.56
2023-01-10T16:46:30.479Z,12.48
2023-01-10T16:48:57.436Z,12.58
2023-01-10T16:51:30.482Z,12.52
2023-01-10T16:53:57.313Z,12.39
2023-01-10T16:56:26.919Z,12.36
2023-01-10T16:58:58.170Z,12.29
2023-01-10T17:01:43.668Z,12.12
2023-01-10T17:04:21.217Z,12.05
2023-01-10T17:07:05.174Z,12.13
2023-01-10T17:09:35.959Z,11.99
2023-01-10T17:12:15.175Z,11.74
2023-01-10T17:14:45.587Z,11.70
2023-01-10T17:17:15.416Z,11.87
2023-01-10T17:19:43.054Z,11.93
2023-01-10T17:22:17.233Z,11.99
2023-01-10T17:24:47.385Z,12.03
2023-01-10T17:27:14.339Z,12.11
2023-01-10T17:29:41.282Z,12.25
2023-01-10T17:32:15.197Z,12.14
2023-01-10T17:34:45.340Z,12.22
2023-01-10T17:37:14.664Z,12.23
2023-01-10T17:39:41.731Z,12.35
2023-01-10T17:42:14.876Z,12.39
2023-01-10T17:44:41.745Z,12.34
2023-01-10T17:47:14.609Z,12.40
2023-01-10T17:49:44.328Z,12.31
2023-01-10T17:52:11.268Z,12.35
2023-01-10T17:54:45.539Z,12.24
2023-01-10T17:57:36.281Z,12.39
2023-01-10T18:00:12.394Z,12.38
2023-01-10T18:02:39.545Z,12.42
2023-01-10T18:05:12.070Z,12.50
2023-01-10T18:07:38.791Z,12.48
2023-01-10T18:10:09.084Z,12.52
2023-01-10T18:12:36.719Z,12.53
2023-01-10T18:15:08.633Z,12.44
2023-01-10T18:17:35.796Z,12.42
2023-01-10T18:20:06.326Z,12.41
2023-01-10T18:22:58.927Z,12.36
2023-01-10T18:25:31.924Z,12.44
2023-01-10T18:28:04.124Z,12.42
2023-01-10T18:30:39.999Z,12.53
2023-01-10T18:33:13.768Z,12.53
2023-01-10T18:35:44.965Z,12.53
2023-01-10T18:38:15.145Z,12.54
2023-01-10T18:40:45.387Z,12.55
2023-01-10T18:43:18.214Z,12.57
2023-01-10T18:45:51.106Z,12.54
2023-01-10T18:48:26.623Z,12.40
2023-01-10T18:50:57.718Z,12.61
2023-01-10T18:53:28.293Z,12.61
2023-01-10T18:56:01.034Z,12.66
2023-01-10T18:58:31.579Z,12.65
2023-01-10T19:01:06.007Z,12.67
2023-01-10T19:03:38.085Z,12.64
2023-01-10T19:06:16.997Z,12.53
2023-01-10T19:08:44.999Z,12.59
2023-01-10T19:11:20.931Z,12.59
2023-01-10T19:13:55.434Z,12.66
2023-01-10T19:16:25.229Z,12.61
2023-01-10T19:19:09.534Z,12.61
2023-01-10T19:21:40.544Z,12.52
2023-01-10T19:24:36.233Z,12.52
2023-01-10T19:27:04.970Z,12.40
2023-01-10T19:29:41.811Z,12.34
2023-01-10T19:32:11.833Z,12.31
2023-01-10T19:34:46.368Z,12.29
2023-01-10T19:37:19.457Z,12.16
2023-01-10T19:39:47.644Z,12.32
2023-01-10T19:42:15.713Z,12.30
2023-01-10T19:44:42.907Z,12.27
2023-01-10T19:47:11.766Z,12.31
2023-01-10T19:49:41.901Z,12.43
2023-01-10T19:52:11.370Z,12.23
2023-01-10T19:54:48.759Z,12.30
2023-01-10T19:57:19.544Z,12.20
2023-01-10T19:59:52.117Z,12.05
2023-01-10T20:02:23.559Z,11.97
2023-01-10T20:04:53.335Z,11.94
2023-01-10T20:07:22.548Z,11.88
2023-01-10T20:09:51.043Z,11.81
2023-01-10T20:12:22.649Z,11.90
2023-01-10T20:14:55.854Z,11.93
2023-01-10T20:17:25.918Z,11.97
2023-01-10T20:19:57.180Z,12.19
2023-01-10T20:22:24.776Z,12.20
2023-01-10T20:24:54.163Z,12.18
2023-01-10T20:27:24.206Z,12.13
2023-01-10T20:29:52.169Z,12.12
2023-01-10T20:32:19.947Z,12.24
2023-01-10T20:34:49.888Z,12.19
2023-01-10T20:37:25.319Z,12.26
2023-01-10T20:39:52.268Z,12.22
2023-01-10T20:42:44.416Z,12.30
2023-01-10T20:45:16.409Z,12.15
2023-01-10T20:47:53.802Z,12.24
2023-01-10T20:50:21.887Z,12.21
2023-01-10T20:53:02.799Z,12.11
2023-01-10T20:55:35.605Z,11.93
2023-01-10T20:58:08.802Z,11.88
2023-01-10T21:00:43.700Z,11.78
2023-01-10T21:03:11.157Z,11.89
2023-01-10T21:05:43.120Z,11.60
2023-01-10T21:08:12.312Z,11.46
2023-01-10T21:10:46.043Z,11.39
2023-01-10T21:13:16.634Z,11.49
2023-01-10T21:15:48.067Z,11.41
2023-01-10T21:18:26.487Z,11.35
2023-01-10T21:21:07.062Z,11.14
2023-01-10T21:23:34.915Z,10.98
2023-01-10T21:26:06.608Z,10.99
2023-01-10T21:28:35.507Z,11.24
2023-01-10T21:31:12.635Z,11.46
2023-01-10T21:33:42.759Z,11.30
2023-01-10T21:36:15.727Z,11.25
2023-01-10T21:38:50.035Z,11.33
2023-01-10T21:41:39.357Z,11.34
2023-01-10T21:44:08.704Z,11.52
2023-01-10T21:46:36.467Z,11.74
2023-01-10T21:49:07.291Z,11.59
2023-01-10T21:51:34.452Z,11.45
2023-01-10T21:54:04.248Z,11.47
2023-01-10T21:56:34.213Z,11.29
2023-01-10T21:59:04.030Z,10.95
2023-01-10T22:01:31.080Z,11.08
2023-01-10T22:04:03.789Z,10.94
2023-01-10T22:06:33.648Z,10.74
2023-01-10T22:09:00.697Z,10.75
2023-01-10T22:11:30.658Z,10.62
2023-01-10T22:14:00.829Z,10.73
2023-01-10T22:16:27.715Z,10.77
2023-01-10T22:18:58.404Z,10.97
2023-01-10T22:21:30.789Z,10.95
2023-01-10T22:23:59.730Z,10.88
2023-01-10T22:26:32.059Z,11.06
2023-01-10T22:29:01.823Z,10.88
2023-01-10T22:31:30.869Z,11.02
2023-01-10T22:34:06.430Z,10.72
2023-01-10T22:36:38.876Z,10.57
2023-01-10T22:39:09.155Z,10.34
2023-01-10T22:41:39.284Z,10.29
2023-01-10T22:44:06.560Z,10.08
2023-01-10T22:46:34.712Z,10.40
2023-01-10T22:49:01.733Z,10.34
2023-01-10T22:51:29.018Z,10.16
2023-01-10T22:54:00.580Z,10.26
2023-01-10T22:56:27.632Z,10.54
2023-01-10T22:58:58.194Z,10.43
2023-01-10T23:01:30.507Z,10.58
2023-01-10T23:03:59.597Z,10.44
2023-01-10T23:06:28.887Z,10.61
2023-01-10T23:09:00.137Z,10.41
2023-01-10T23:11:30.665Z,10.15
2023-01-10T23:13:57.823Z,10.26
2023-01-10T23:16:35.148Z,10.06
2023-01-10T23:19:02.122Z,9.90
2023-01-10T23:21:31.652Z,10.11
2023-01-10T23:23:58.649Z,9.99
2023-01-10T23:26:25.489Z,10.09
2023-01-10T23:29:00.466Z,10.46
2023-01-10T23:31:29.864Z,10.43
2023-01-10T23:33:57.157Z,10.31
2023-01-10T23:36:38.264Z,10.72
2023-01-10T23:39:06.123Z,10.69
2023-01-10T23:41:34.144Z,10.76
2023-01-10T23:44:02.328Z,10.85
2023-01-10T23:46:29.680Z,10.86
2023-01-10T23:49:10.863Z,10.84
2023-01-10T23:51:38.180Z,10.80
2023-01-10T23:54:05.659Z,10.87
2023-01-10T23:56:33.001Z,10.77
2023-01-10T23:59:06.943Z,10.64
